createdAt,value
2022-11-17T00:01:23.880Z,23.00
2022-11-17T00:03:51.615Z,22.90
2022-11-17T00:06:21.595Z,22.90
2022-11-17T00:08:49.442Z,22.90
2022-11-17T00:11:16.415Z,22.90
2022-11-17T00:14:01.953Z,22.90
2022-11-17T00:16:28.884Z,22.90
2022-11-17T00:19:14.196Z,22.90
2022-11-17T00:21:41.079Z,22.90
2022-11-17T00:24:08.097Z,22.90
2022-11-17T00:26:56.171Z,22.90
2022-11-17T00:29:23.245Z,22.90
2022-11-17T00:32:08.789Z,22.90
2022-11-17T00:34:35.637Z,22.90
2022-11-17T00:37:02.701Z,22.90
2022-11-17T00:39:29.638Z,22.80
2022-11-17T00:41:56.734Z,22.80
2022-11-17T00:44:23.629Z,22.80
2022-11-17T00:46:50.672Z,22.80
2022-11-17T00:49:20.031Z,22.90
2022-11-17T00:51:47.041Z,22.90
2022-11-17T00:54:15.403Z,22.80
2022-11-17T00:56:42.357Z,22.90
2022-11-17T00:59:09.484Z,22.80
2022-11-17T01:01:37.136Z,22.80
2022-11-17T01:04:04.811Z,22.80
2022-11-17T01:06:36.198Z,22.80
2022-11-17T01:09:05.508Z,22.80
2022-11-17T01:11:32.828Z,22.80
2022-11-17T01:14:00.901Z,22.80
2022-11-17T01:16:28.645Z,22.80
2022-11-17T01:18:55.736Z,22.80
2022-11-17T01:21:24.705Z,22.80
2022-11-17T01:23:54.124Z,22.80
2022-11-17T01:26:23.620Z,22.80
2022-11-17T01:28:50.833Z,22.80
2022-11-17T01:31:22.703Z,22.70
2022-11-17T01:33:49.972Z,22.80
2022-11-17T01:36:22.195Z,22.80
2022-11-17T01:38:49.330Z,22.70
2022-11-17T01:41:27.854Z,22.70
2022-11-17T01:43:59.545Z,22.80
2022-11-17T01:46:33.259Z,22.70
2022-11-17T01:49:12.047Z,22.70
2022-11-17T01:51:50.548Z,22.70
2022-11-17T01:54:21.400Z,22.70
2022-11-17T01:56:49.808Z,22.70
2022-11-17T01:59:23.372Z,22.70
2022-11-17T02:01:56.911Z,22.70
2022-11-17T02:04:30.284Z,22.60
2022-11-17T02:07:12.483Z,22.70
2022-11-17T02:09:40.786Z,22.70
2022-11-17T02:12:10.368Z,22.70
2022-11-17T02:14:37.339Z,22.60
2022-11-17T02:17:11.504Z,22.60
2022-11-17T02:19:43.101Z,22.60
2022-11-17T02:22:13.064Z,22.60
2022-11-17T02:24:59.884Z,22.60
2022-11-17T02:28:00.789Z,22.70
2022-11-17T02:30:34.089Z,22.70
2022-11-17T02:33:15.700Z,22.60
2022-11-17T02:35:49.368Z,22.60
2022-11-17T02:38:23.488Z,22.60
2022-11-17T02:40:55.817Z,22.60
2022-11-17T02:43:46.229Z,22.60
2022-11-17T02:46:17.958Z,22.60
2022-11-17T02:48:48.322Z,22.50
2022-11-17T02:51:19.114Z,22.60
2022-11-17T02:53:46.716Z,22.60
2022-11-17T02:56:13.564Z,22.50
2022-11-17T02:58:40.370Z,22.60
2022-11-17T03:01:27.125Z,22.60
2022-11-17T03:04:29.447Z,22.60
2022-11-17T03:07:17.520Z,22.60
2022-11-17T03:09:46.702Z,22.50
2022-11-17T03:12:19.863Z,22.50
2022-11-17T03:15:02.326Z,22.50
2022-11-17T03:17:38.012Z,22.40
2022-11-17T03:20:13.943Z,22.40
2022-11-17T03:22:47.960Z,22.40
2022-11-17T03:25:17.813Z,22.50
2022-11-17T03:27:48.533Z,22.40
2022-11-17T03:30:16.309Z,22.40
2022-11-17T03:32:49.964Z,22.50
2022-11-17T03:35:21.591Z,22.50
2022-11-17T03:37:53.074Z,22.50
2022-11-17T03:40:22.418Z,22.50
2022-11-17T03:42:53.881Z,22.50
2022-11-17T03:45:30.139Z,22.40
2022-11-17T03:48:36.763Z,22.50
2022-11-17T03:51:09.281Z,22.50
2022-11-17T03:53:36.858Z,22.40
2022-11-17T03:56:25.006Z,22.40
2022-11-17T03:59:10.998Z,22.40
2022-11-17T04:01:37.964Z,22.40
2022-11-17T04:04:04.913Z,22.40
2022-11-17T04:06:31.736Z,22.40
2022-11-17T04:08:58.521Z,22.40
2022-11-17T04:11:43.705Z,22.40
2022-11-17T04:14:29.389Z,22.40
2022-11-17T04:16:56.228Z,22.40
2022-11-17T04:19:23.022Z,22.40
2022-11-17T04:21:49.866Z,22.40
2022-11-17T04:24:16.718Z,22.40
2022-11-17T04:27:02.323Z,22.40
2022-11-17T04:29:29.094Z,22.40
2022-11-17T04:31:55.963Z,22.40
2022-11-17T04:34:22.775Z,22.40
2022-11-17T04:36:50.822Z,22.40
2022-11-17T04:39:18.022Z,22.40
2022-11-17T04:41:54.531Z,22.30
2022-11-17T04:44:25.913Z,22.30
2022-11-17T04:46:53.483Z,22.30
2022-11-17T04:49:21.359Z,22.30
2022-11-17T04:51:48.706Z,22.30
2022-11-17T04:54:18.094Z,22.30
2022-11-17T04:56:45.440Z,22.30
2022-11-17T04:59:12.323Z,22.30
2022-11-17T05:01:39.206Z,22.30
2022-11-17T05:04:08.251Z,22.40
2022-11-17T05:06:37.681Z,22.30
2022-11-17T05:09:24.779Z,22.30
2022-11-17T05:12:10.283Z,22.30
2022-11-17T05:14:37.132Z,22.30
2022-11-17T05:17:10.004Z,22.30
2022-11-17T05:19:45.330Z,22.30
2022-11-17T05:22:51.186Z,22.30
2022-11-17T05:25:18.055Z,22.30
2022-11-17T05:27:44.862Z,22.20
2022-11-17T05:30:12.117Z,22.20
2022-11-17T05:32:38.988Z,22.20
2022-11-17T05:35:06.357Z,22.30
2022-11-17T05:37:33.227Z,22.20
2022-11-17T05:40:00.017Z,22.30
2022-11-17T05:42:26.830Z,22.20
2022-11-17T05:44:53.841Z,22.30
2022-11-17T05:47:20.644Z,22.30
2022-11-17T05:49:47.440Z,22.30
2022-11-17T05:52:14.256Z,22.20
2022-11-17T05:54:41.088Z,22.20
2022-11-17T05:57:16.187Z,22.20
2022-11-17T05:59:50.944Z,22.30
2022-11-17T06:02:23.592Z,22.30
2022-11-17T06:04:51.860Z,22.20
2022-11-17T06:07:18.973Z,22.20
2022-11-17T06:09:46.444Z,22.20
2022-11-17T06:12:13.397Z,22.20
2022-11-17T06:14:40.237Z,22.20
2022-11-17T06:17:32.401Z,22.20
2022-11-17T06:20:03.836Z,22.20
2022-11-17T06:22:31.061Z,22.20
2022-11-17T06:24:58.983Z,22.20
2022-11-17T06:27:26.004Z,22.20
2022-11-17T06:29:53.740Z,22.20
2022-11-17T06:32:20.847Z,22.20
2022-11-17T06:34:53.852Z,22.20
2022-11-17T06:37:22.109Z,22.20
2022-11-17T06:39:48.921Z,22.10
2022-11-17T06:42:15.778Z,22.20
2022-11-17T06:44:42.616Z,22.10
2022-11-17T06:47:09.456Z,22.20
2022-11-17T06:49:36.305Z,22.20
2022-11-17T06:52:03.160Z,22.10
2022-11-17T06:54:30.016Z,22.20
2022-11-17T06:56:57.173Z,22.20
2022-11-17T06:59:24.083Z,22.10
2022-11-17T07:01:51.000Z,22.10
2022-11-17T07:04:17.991Z,22.10
2022-11-17T07:06:44.878Z,22.10
2022-11-17T07:09:11.723Z,22.10
2022-11-17T07:11:38.604Z,22.10
2022-11-17T07:14:05.506Z,22.10
2022-11-17T07:16:32.647Z,22.10
2022-11-17T07:19:03.348Z,22.10
2022-11-17T07:21:30.233Z,22.10
2022-11-17T07:23:57.161Z,22.10
2022-11-17T07:26:24.010Z,22.10
2022-11-17T07:28:50.870Z,22.10
2022-11-17T07:31:17.804Z,22.10
2022-11-17T07:33:44.726Z,22.10
2022-11-17T07:36:14.585Z,22.10
2022-11-17T07:38:41.459Z,22.10
2022-11-17T07:41:10.183Z,22.00
2022-11-17T07:43:37.304Z,22.10
2022-11-17T07:46:08.917Z,22.00
2022-11-17T07:48:36.267Z,21.90
2022-11-17T07:51:04.421Z,21.90
2022-11-17T07:53:33.273Z,21.80
2022-11-17T07:56:13.077Z,21.80
2022-11-17T07:58:40.657Z,21.70
2022-11-17T08:01:08.061Z,21.70
2022-11-17T08:03:35.110Z,21.60
2022-11-17T08:06:06.310Z,21.60
2022-11-17T08:08:34.051Z,21.60
2022-11-17T08:11:05.195Z,21.60
2022-11-17T08:13:32.476Z,21.60
2022-11-17T08:15:59.382Z,21.60
2022-11-17T08:18:26.617Z,21.70
2022-11-17T08:21:00.214Z,21.70
2022-11-17T08:23:27.036Z,21.70
2022-11-17T08:25:53.911Z,21.80
2022-11-17T08:28:20.870Z,21.80
2022-11-17T08:30:47.761Z,22.00
2022-11-17T08:33:14.661Z,22.00
2022-11-17T08:35:41.787Z,22.10
2022-11-17T08:38:11.601Z,22.10
2022-11-17T08:40:39.011Z,22.20
2022-11-17T08:43:05.934Z,22.30
2022-11-17T08:45:32.773Z,22.40
2022-11-17T08:47:59.863Z,22.40
2022-11-17T08:50:27.135Z,22.50
2022-11-17T08:52:54.002Z,22.50
2022-11-17T08:55:20.932Z,22.60
2022-11-17T08:57:47.855Z,22.60
2022-11-17T09:00:15.376Z,22.70
2022-11-17T09:02:42.205Z,22.80
2022-11-17T09:05:09.336Z,22.80
2022-11-17T09:07:36.239Z,22.90
2022-11-17T09:10:05.194Z,22.90
2022-11-17T09:12:32.487Z,23.00
2022-11-17T09:14:59.352Z,23.00
2022-11-17T09:17:26.207Z,23.10
2022-11-17T09:19:53.144Z,23.10
2022-11-17T09:22:19.964Z,23.20
2022-11-17T09:24:46.843Z,23.20
2022-11-17T09:27:13.912Z,23.20
2022-11-17T09:29:40.761Z,23.30
2022-11-17T09:32:07.666Z,23.30
2022-11-17T09:34:34.637Z,23.30
2022-11-17T09:37:01.531Z,23.30
2022-11-17T09:39:28.358Z,23.40
2022-11-17T09:41:56.789Z,23.40
2022-11-17T09:44:42.282Z,23.40
2022-11-17T09:47:40.620Z,23.40
2022-11-17T09:50:28.120Z,23.40
2022-11-17T09:53:01.861Z,23.40
2022-11-17T09:55:43.833Z,23.40
2022-11-17T09:58:30.179Z,23.50
2022-11-17T10:00:57.569Z,23.40
2022-11-17T10:03:36.269Z,23.50
2022-11-17T10:06:08.551Z,23.60
2022-11-17T10:08:37.605Z,23.50
2022-11-17T10:11:24.385Z,23.60
2022-11-17T10:13:51.514Z,23.50
2022-11-17T10:16:18.438Z,23.40
2022-11-17T10:18:45.260Z,23.50
2022-11-17T10:21:12.149Z,23.50
2022-11-17T10:23:47.107Z,23.60
2022-11-17T10:26:15.839Z,23.60
2022-11-17T10:28:42.976Z,23.70
2022-11-17T10:31:15.422Z,23.70
2022-11-17T10:33:50.251Z,23.70
2022-11-17T10:36:46.589Z,23.80
2022-11-17T10:39:41.964Z,23.80
2022-11-17T10:42:21.430Z,23.80
2022-11-17T10:44:52.300Z,23.80
2022-11-17T10:47:37.641Z,23.80
2022-11-17T10:50:21.070Z,23.80
2022-11-17T10:52:49.022Z,23.80
2022-11-17T10:55:27.693Z,23.80
2022-11-17T10:58:21.716Z,23.80
2022-11-17T11:00:57.071Z,23.80
2022-11-17T11:03:33.396Z,23.80
2022-11-17T11:06:05.123Z,23.80
2022-11-17T11:08:44.243Z,23.80
2022-11-17T11:11:37.135Z,23.80
2022-11-17T11:14:35.839Z,23.80
2022-11-17T11:17:13.344Z,23.80
2022-11-17T11:19:49.241Z,23.70
2022-11-17T11:22:21.451Z,23.70
2022-11-17T11:25:04.520Z,23.70
2022-11-17T11:27:58.856Z,23.70
2022-11-17T11:30:26.844Z,23.80
2022-11-17T11:33:23.587Z,23.70
2022-11-17T11:36:11.410Z,23.80
2022-11-17T11:38:55.478Z,23.80
2022-11-17T11:41:36.610Z,23.70
2022-11-17T11:44:06.457Z,23.70
2022-11-17T11:46:54.187Z,23.70
2022-11-17T11:49:46.116Z,23.70
2022-11-17T11:52:25.370Z,23.70
2022-11-17T11:55:02.069Z,23.70
2022-11-17T11:57:37.418Z,23.70
2022-11-17T12:00:06.711Z,23.70
2022-11-17T12:02:48.780Z,23.60
2022-11-17T12:05:39.638Z,23.70
2022-11-17T12:08:26.926Z,23.70
2022-11-17T12:10:56.751Z,23.60
2022-11-17T12:13:24.369Z,23.60
2022-11-17T12:15:51.360Z,23.60
2022-11-17T12:18:18.178Z,23.60
2022-11-17T12:21:14.147Z,23.60
2022-11-17T12:24:05.161Z,23.60
2022-11-17T12:26:33.298Z,23.60
2022-11-17T12:29:22.010Z,23.50
2022-11-17T12:32:00.305Z,23.60
2022-11-17T12:34:30.532Z,23.50
2022-11-17T12:37:22.115Z,23.50
2022-11-17T12:40:36.517Z,23.50
2022-11-17T12:43:15.551Z,23.50
2022-11-17T12:45:58.045Z,23.50
2022-11-17T12:48:35.321Z,23.40
2022-11-17T12:51:23.604Z,23.40
2022-11-17T12:54:22.576Z,23.40
2022-11-17T12:56:51.192Z,23.40
2022-11-17T12:59:39.740Z,23.30
2022-11-17T13:02:25.449Z,23.20
2022-11-17T13:04:56.525Z,23.30
2022-11-17T13:07:25.727Z,23.30
2022-11-17T13:09:57.324Z,23.30
2022-11-17T13:12:29.129Z,23.30
2022-11-17T13:14:58.039Z,23.30
2022-11-17T13:17:32.129Z,23.30
2022-11-17T13:20:04.922Z,23.40
2022-11-17T13:22:31.776Z,23.30
2022-11-17T13:24:58.667Z,23.30
2022-11-17T13:27:30.324Z,23.30
2022-11-17T13:30:13.912Z,23.40
2022-11-17T13:32:41.813Z,23.40
2022-11-17T13:35:23.173Z,23.30
2022-11-17T13:38:03.408Z,23.40
2022-11-17T13:40:31.692Z,23.40
2022-11-17T13:42:58.947Z,23.30
2022-11-17T13:45:25.901Z,23.30
2022-11-17T13:47:54.387Z,23.30
2022-11-17T13:50:29.323Z,23.30
2022-11-17T13:53:00.772Z,23.30
2022-11-17T13:55:28.460Z,23.30
2022-11-17T13:58:01.262Z,23.30
2022-11-17T14:00:28.930Z,23.30
2022-11-17T14:02:59.765Z,23.30
2022-11-17T14:05:30.880Z,23.30
2022-11-17T14:08:11.228Z,23.30
2022-11-17T14:10:39.189Z,23.30
2022-11-17T14:13:05.986Z,23.30
2022-11-17T14:15:36.869Z,23.20
2022-11-17T14:18:18.802Z,23.30
2022-11-17T14:20:47.925Z,23.30
2022-11-17T14:23:15.471Z,23.20
2022-11-17T14:25:44.809Z,23.00
2022-11-17T14:28:17.218Z,22.90
2022-11-17T14:30:47.550Z,22.90
2022-11-17T14:33:14.408Z,22.90
2022-11-17T14:35:41.845Z,22.90
2022-11-17T14:38:17.593Z,22.90
2022-11-17T14:40:44.542Z,22.90
2022-11-17T14:43:11.567Z,22.90
2022-11-17T14:45:38.539Z,22.90
2022-11-17T14:48:08.561Z,22.90
2022-11-17T14:50:35.436Z,22.90
2022-11-17T14:53:02.294Z,22.80
2022-11-17T14:55:29.125Z,22.90
2022-11-17T14:57:56.013Z,22.80
2022-11-17T15:00:22.988Z,22.90
2022-11-17T15:02:51.093Z,22.90
2022-11-17T15:05:18.105Z,22.90
2022-11-17T15:07:44.987Z,22.90
2022-11-17T15:10:12.361Z,22.90
2022-11-17T15:12:39.210Z,22.90
2022-11-17T15:15:06.631Z,22.90
2022-11-17T15:17:33.508Z,22.90
2022-11-17T15:20:00.412Z,22.90
2022-11-17T15:22:27.322Z,22.90
2022-11-17T15:24:54.265Z,22.90
2022-11-17T15:27:21.090Z,22.90
2022-11-17T15:29:47.976Z,22.90
2022-11-17T15:32:14.796Z,22.90
2022-11-17T15:34:41.597Z,22.90
2022-11-17T15:37:08.468Z,22.90
2022-11-17T15:39:36.504Z,22.90
2022-11-17T15:42:03.421Z,22.90
2022-11-17T15:44:30.373Z,22.90
2022-11-17T15:46:57.428Z,22.90
2022-11-17T15:49:24.291Z,22.90
2022-11-17T15:51:51.150Z,22.90
2022-11-17T15:54:20.722Z,22.90
2022-11-17T15:56:48.235Z,23.00
2022-11-17T15:59:15.382Z,22.90
2022-11-17T16:01:42.647Z,23.00
2022-11-17T16:04:11.320Z,22.90
2022-11-17T16:06:39.905Z,23.00
2022-11-17T16:09:06.911Z,23.00
2022-11-17T16:11:34.542Z,22.90
2022-11-17T16:14:01.771Z,23.00
2022-11-17T16:16:31.568Z,22.90
2022-11-17T16:18:58.616Z,22.90
2022-11-17T16:21:25.795Z,22.90
2022-11-17T16:23:54.879Z,22.90
2022-11-17T16:26:21.960Z,22.90
2022-11-17T16:28:49.011Z,22.80
2022-11-17T16:31:18.921Z,22.80
2022-11-17T16:33:57.455Z,22.90
2022-11-17T16:36:29.012Z,22.90
2022-11-17T16:39:01.834Z,22.90
2022-11-17T16:41:32.466Z,22.90
2022-11-17T16:44:00.059Z,23.00
2022-11-17T16:46:29.263Z,23.00
2022-11-17T16:48:56.583Z,23.00
2022-11-17T16:51:23.658Z,22.90
2022-11-17T16:54:01.790Z,22.90
2022-11-17T16:56:29.114Z,23.10
2022-11-17T16:58:56.112Z,23.10
2022-11-17T17:01:28.635Z,23.20
2022-11-17T17:03:56.969Z,23.20
2022-11-17T17:06:24.161Z,23.30
2022-11-17T17:08:54.719Z,23.30
2022-11-17T17:11:21.584Z,23.30
2022-11-17T17:13:48.486Z,23.40
2022-11-17T17:16:18.139Z,23.40
2022-11-17T17:18:45.095Z,23.50
2022-11-17T17:21:17.586Z,23.50
2022-11-17T17:23:45.616Z,23.50
2022-11-17T17:26:18.315Z,23.50
2022-11-17T17:28:46.538Z,23.60
2022-11-17T17:31:20.756Z,23.60
2022-11-17T17:33:48.761Z,23.60
2022-11-17T17:36:17.877Z,23.60
2022-11-17T17:38:47.727Z,23.70
2022-11-17T17:41:19.030Z,23.60
2022-11-17T17:43:47.005Z,23.60
2022-11-17T17:46:16.301Z,23.60
2022-11-17T17:48:44.581Z,23.70
2022-11-17T17:51:15.369Z,23.70
2022-11-17T17:53:42.642Z,23.80
2022-11-17T17:56:11.889Z,23.70
2022-11-17T17:58:42.298Z,23.80
2022-11-17T18:01:17.914Z,23.80
2022-11-17T18:03:46.467Z,23.80
2022-11-17T18:06:14.345Z,23.80
2022-11-17T18:08:41.436Z,23.80
2022-11-17T18:11:12.443Z,23.80
2022-11-17T18:13:41.560Z,23.90
2022-11-17T18:16:09.604Z,23.80
2022-11-17T18:18:37.811Z,23.80
2022-11-17T18:21:09.915Z,23.70
2022-11-17T18:23:37.301Z,23.70
2022-11-17T18:26:19.416Z,23.70
2022-11-17T18:28:55.935Z,23.80
2022-11-17T18:31:25.151Z,23.80
2022-11-17T18:33:59.681Z,23.70
2022-11-17T18:36:27.201Z,23.80
2022-11-17T18:38:54.240Z,23.80
2022-11-17T18:41:21.800Z,23.80
2022-11-17T18:43:48.783Z,23.80
2022-11-17T18:46:21.632Z,23.80
2022-11-17T18:48:50.862Z,23.80
2022-11-17T18:51:21.215Z,23.80
2022-11-17T18:53:49.653Z,23.80
2022-11-17T18:56:24.445Z,23.80
2022-11-17T18:58:51.793Z,23.80
2022-11-17T19:01:21.540Z,23.80
2022-11-17T19:03:50.530Z,23.80
2022-11-17T19:06:18.776Z,23.80
2022-11-17T19:08:46.206Z,23.80
2022-11-17T19:11:13.361Z,23.80
2022-11-17T19:13:41.735Z,23.80
2022-11-17T19:16:14.937Z,23.80
2022-11-17T19:18:42.989Z,23.80
2022-11-17T19:21:10.919Z,23.80
2022-11-17T19:23:43.469Z,23.80
2022-11-17T19:26:20.632Z,23.80
2022-11-17T19:28:47.827Z,23.80
2022-11-17T19:31:17.058Z,23.80
2022-11-17T19:33:45.085Z,23.80
2022-11-17T19:36:16.262Z,23.70
2022-11-17T19:38:45.464Z,23.80
2022-11-17T19:41:14.971Z,23.70
2022-11-17T19:43:45.351Z,23.80
2022-11-17T19:46:14.894Z,23.70
2022-11-17T19:48:41.998Z,23.70
2022-11-17T19:51:23.957Z,23.70
2022-11-17T19:53:52.949Z,23.60
2022-11-17T19:56:20.297Z,23.60
2022-11-17T19:58:47.714Z,23.60
2022-11-17T20:01:17.343Z,23.50
2022-11-17T20:03:44.948Z,23.60
2022-11-17T20:06:14.027Z,23.60
2022-11-17T20:08:40.901Z,23.60
2022-11-17T20:11:12.369Z,23.50
2022-11-17T20:13:39.600Z,23.50
2022-11-17T20:16:12.084Z,23.50
2022-11-17T20:18:40.566Z,23.50
2022-11-17T20:21:08.434Z,23.60
2022-11-17T20:23:36.579Z,23.60
2022-11-17T20:26:14.921Z,23.60
2022-11-17T20:28:42.342Z,23.60
2022-11-17T20:31:22.583Z,23.50
2022-11-17T20:33:49.470Z,23.60
2022-11-17T20:36:18.724Z,23.50
2022-11-17T20:38:52.681Z,23.60
2022-11-17T20:41:21.070Z,23.60
2022-11-17T20:43:49.052Z,23.60
2022-11-17T20:46:15.918Z,23.50
2022-11-17T20:48:42.839Z,23.50
2022-11-17T20:51:11.936Z,23.60
2022-11-17T20:53:38.866Z,23.50
2022-11-17T20:56:07.682Z,23.50
2022-11-17T20:58:34.995Z,23.40
2022-11-17T21:01:10.022Z,23.40
2022-11-17T21:03:37.170Z,23.50
2022-11-17T21:06:04.892Z,23.50
2022-11-17T21:08:35.345Z,23.50
2022-11-17T21:11:04.520Z,23.50
2022-11-17T21:13:35.301Z,23.50
2022-11-17T21:16:08.093Z,23.50
2022-11-17T21:18:35.573Z,23.50
2022-11-17T21:21:08.781Z,23.50
2022-11-17T21:23:37.381Z,23.50
2022-11-17T21:26:16.988Z,23.50
2022-11-17T21:28:43.943Z,23.50
2022-11-17T21:31:12.157Z,23.40
2022-11-17T21:33:39.676Z,23.50
2022-11-17T21:36:12.474Z,23.40
2022-11-17T21:38:39.603Z,23.50
2022-11-17T21:41:17.863Z,23.40
2022-11-17T21:43:46.850Z,23.50
2022-11-17T21:46:16.737Z,23.40
2022-11-17T21:48:44.079Z,23.40
2022-11-17T21:51:18.037Z,23.40
2022-11-17T21:53:45.060Z,23.40
2022-11-17T21:56:12.454Z,23.40
2022-11-17T21:58:39.587Z,23.40
2022-11-17T22:01:11.470Z,23.40
2022-11-17T22:03:39.244Z,23.40
2022-11-17T22:06:14.227Z,23.40
2022-11-17T22:08:42.762Z,23.40
2022-11-17T22:11:15.214Z,23.30
2022-11-17T22:13:42.630Z,23.30
2022-11-17T22:16:13.900Z,23.30
2022-11-17T22:18:41.346Z,23.40
2022-11-17T22:21:08.837Z,23.30
2022-11-17T22:23:35.768Z,23.30
2022-11-17T22:26:06.302Z,23.30
2022-11-17T22:28:33.344Z,23.30
2022-11-17T22:31:04.182Z,23.30
2022-11-17T22:33:31.028Z,23.30
2022-11-17T22:36:01.200Z,23.30
2022-11-17T22:38:30.088Z,23.30
2022-11-17T22:41:04.184Z,23.30
2022-11-17T22:43:31.466Z,23.30
2022-11-17T22:46:01.898Z,23.30
2022-11-17T22:48:28.928Z,23.30
2022-11-17T22:50:59.596Z,23.30
2022-11-17T22:53:27.094Z,23.30
2022-11-17T22:55:54.060Z,23.30
2022-11-17T22:58:20.989Z,23.30
2022-11-17T23:00:47.839Z,23.30
2022-11-17T23:03:14.897Z,23.40
2022-11-17T23:05:41.818Z,23.40
2022-11-17T23:08:10.030Z,23.30
2022-11-17T23:10:37.432Z,23.30
2022-11-17T23:13:04.553Z,23.30
2022-11-17T23:15:32.418Z,23.30
2022-11-17T23:17:59.329Z,23.30
2022-11-17T23:20:26.216Z,23.30
2022-11-17T23:22:54.481Z,23.30
2022-11-17T23:25:21.963Z,23.30
2022-11-17T23:27:48.837Z,23.30
2022-11-17T23:30:16.127Z,23.30
2022-11-17T23:32:43.490Z,23.30
2022-11-17T23:35:10.383Z,23.30
2022-11-17T23:37:37.248Z,23.30
2022-11-17T23:40:04.398Z,23.30
2022-11-17T23:42:32.583Z,23.30
2022-11-17T23:45:00.337Z,23.30
2022-11-17T23:47:27.213Z,23.30
2022-11-17T23:49:54.041Z,23.30
2022-11-17T23:52:20.907Z,23.30
2022-11-17T23:54:47.714Z,23.30
2022-11-17T23:57:14.739Z,23.30
2022-11-17T23:59:41.680Z,23.30
